createdAt,value
2023-11-05T00:02:07.221Z,98816.41
2023-11-05T00:05:14.597Z,98813.22
2023-11-05T00:08:18.706Z,98820.56
2023-11-05T00:11:24.068Z,98823.03
2023-11-05T00:14:27.726Z,98824.16
2023-11-05T00:17:31.400Z,98834.28
2023-11-05T00:20:35.094Z,98823.53
2023-11-05T00:23:39.076Z,98830.47
2023-11-05T00:26:44.031Z,98831.63
2023-11-05T00:29:47.674Z,98831.72
2023-11-05T00:32:51.625Z,98834.19
2023-11-05T00:35:55.383Z,98837.66
2023-11-05T00:38:59.085Z,98846.16
2023-11-05T00:42:04.101Z,98842.75
2023-11-05T00:45:09.011Z,98855.09
2023-11-05T00:48:13.021Z,98857.69
2023-11-05T00:51:16.626Z,98861.28
2023-11-05T00:54:20.263Z,98863.66
2023-11-05T00:57:25.368Z,98866.22
2023-11-05T01:00:29.493Z,98866.13
2023-11-05T01:03:33.847Z,98872.44
2023-11-05T01:06:38.832Z,98869.09
2023-11-05T01:09:42.805Z,98879.78
2023-11-05T01:12:48.018Z,98871.94
2023-11-05T01:15:51.663Z,98882.13
2023-11-05T01:18:55.604Z,98882.34
2023-11-05T01:21:59.466Z,98871.50
2023-11-05T01:25:03.711Z,98883.41
2023-11-05T01:28:08.737Z,98877.44
2023-11-05T01:31:12.385Z,98879.00
2023-11-05T01:34:16.327Z,98881.06
2023-11-05T01:37:20.100Z,98883.66
2023-11-05T01:40:24.167Z,98867.41
2023-11-05T01:43:29.976Z,98883.44
2023-11-05T01:46:33.804Z,98881.03
2023-11-05T01:49:37.527Z,98880.75
2023-11-05T01:52:41.253Z,98881.34
2023-11-05T01:55:44.892Z,98879.50
2023-11-05T01:58:50.969Z,98880.94
2023-11-05T02:01:55.174Z,98884.72
2023-11-05T02:04:59.956Z,98881.13
2023-11-05T02:08:03.712Z,98884.94
2023-11-05T02:11:08.190Z,98872.25
2023-11-05T02:14:15.463Z,98869.63
2023-11-05T02:17:19.070Z,98872.50
2023-11-05T02:20:23.546Z,98869.28
2023-11-05T02:23:29.154Z,98864.50
2023-11-05T02:26:33.004Z,98871.09
2023-11-05T02:29:36.781Z,98878.09
2023-11-05T02:32:40.431Z,98870.91
2023-11-05T02:35:44.669Z,98883.09
2023-11-05T02:38:49.854Z,98878.66
2023-11-05T02:41:53.485Z,98883.69
2023-11-05T02:44:57.099Z,98877.16
2023-11-05T02:48:00.839Z,98886.56
2023-11-05T02:51:04.794Z,98888.19
2023-11-05T02:54:10.457Z,98888.78
2023-11-05T02:57:14.099Z,98887.22
2023-11-05T03:00:18.535Z,98882.94
2023-11-05T03:03:22.370Z,98887.22
2023-11-05T03:06:26.612Z,98875.44
2023-11-05T03:09:31.649Z,98883.41
2023-11-05T03:12:36.225Z,98878.72
2023-11-05T03:15:39.973Z,98879.38
2023-11-05T03:18:43.981Z,98869.03
2023-11-05T03:21:47.626Z,98875.84
2023-11-05T03:24:52.585Z,98869.09
2023-11-05T03:27:56.365Z,98860.56
2023-11-05T03:31:00.062Z,98866.94
2023-11-05T03:34:05.046Z,98871.25
2023-11-05T03:37:08.813Z,98864.09
2023-11-05T03:40:14.946Z,98860.63
2023-11-05T03:43:18.686Z,98864.34
2023-11-05T03:46:23.767Z,98858.84
2023-11-05T03:49:27.433Z,98859.72
2023-11-05T03:52:31.210Z,98864.16
2023-11-05T03:55:36.667Z,98855.94
2023-11-05T03:58:40.869Z,98860.63
2023-11-05T04:01:44.597Z,98855.78
2023-11-05T04:04:49.787Z,98851.97
2023-11-05T04:07:54.517Z,98842.72
2023-11-05T04:10:59.610Z,98845.25
2023-11-05T04:14:03.585Z,98838.00
2023-11-05T04:17:07.488Z,98838.22
2023-11-05T04:20:11.427Z,98849.88
2023-11-05T04:23:15.059Z,98837.31
2023-11-05T04:26:20.060Z,98832.38
2023-11-05T04:29:23.808Z,98830.28
2023-11-05T04:32:27.937Z,98828.41
2023-11-05T04:35:32.144Z,98828.66
2023-11-05T04:38:37.691Z,98833.41
2023-11-05T04:41:42.805Z,98829.13
2023-11-05T04:44:46.725Z,98833.75
2023-11-05T04:47:50.525Z,98834.63
2023-11-05T04:50:54.312Z,98838.97
2023-11-05T04:53:57.972Z,98831.94
2023-11-05T04:57:03.317Z,98826.69
2023-11-05T05:00:09.883Z,98826.69
2023-11-05T05:03:13.566Z,98832.53
2023-11-05T05:06:17.298Z,98833.06
2023-11-05T05:09:20.951Z,98826.69
2023-11-05T05:12:26.041Z,98836.06
2023-11-05T05:15:29.817Z,98835.97
2023-11-05T05:18:33.620Z,98843.41
2023-11-05T05:21:44.190Z,98856.75
2023-11-05T05:24:47.861Z,98854.84
2023-11-05T05:27:52.889Z,98853.97
2023-11-05T05:30:56.585Z,98866.47
2023-11-05T05:34:00.935Z,98865.50
2023-11-05T05:37:04.563Z,98858.47
2023-11-05T05:40:10.306Z,98849.44
2023-11-05T05:43:15.450Z,98852.72
2023-11-05T05:46:19.478Z,98855.66
2023-11-05T05:49:23.597Z,98849.03
2023-11-05T05:52:27.263Z,98851.81
2023-11-05T05:55:31.097Z,98851.81
2023-11-05T05:58:36.520Z,98850.94
2023-11-05T06:01:40.255Z,98855.75
2023-11-05T06:04:43.969Z,98855.81
2023-11-05T06:07:47.710Z,98855.00
2023-11-05T06:10:51.693Z,98851.25
2023-11-05T06:13:56.702Z,98843.09
2023-11-05T06:17:00.439Z,98843.66
2023-11-05T06:20:06.675Z,98846.72
2023-11-05T06:23:10.421Z,98849.63
2023-11-05T06:26:14.056Z,98840.59
2023-11-05T06:29:19.061Z,98834.47
2023-11-05T06:32:22.814Z,98841.81
2023-11-05T06:35:26.460Z,98824.94
2023-11-05T06:38:30.099Z,98830.84
2023-11-05T06:41:33.731Z,98841.53
2023-11-05T06:44:38.746Z,98838.75
2023-11-05T06:47:43.669Z,98841.44
2023-11-05T06:50:48.307Z,98861.97
2023-11-05T06:53:52.071Z,98857.34
2023-11-05T06:56:55.820Z,98856.53
2023-11-05T07:00:01.271Z,98850.88
2023-11-05T07:03:05.027Z,98846.34
2023-11-05T07:06:08.965Z,98845.13
2023-11-05T07:09:12.694Z,98843.31
2023-11-05T07:12:19.134Z,98840.06
2023-11-05T07:15:24.265Z,98831.97
2023-11-05T07:18:28.103Z,98833.66
2023-11-05T07:21:33.055Z,98831.44
2023-11-05T07:24:37.223Z,98829.75
2023-11-05T07:27:40.886Z,98820.78
2023-11-05T07:30:46.046Z,98835.16
2023-11-05T07:33:49.916Z,98831.16
2023-11-05T07:36:53.893Z,98834.06
2023-11-05T07:39:58.076Z,98828.97
2023-11-05T07:43:01.863Z,98824.09
2023-11-05T07:46:07.357Z,98827.19
2023-11-05T07:49:12.147Z,98817.69
2023-11-05T07:52:15.974Z,98811.91
2023-11-05T07:55:19.694Z,98814.53
2023-11-05T07:58:23.463Z,98815.81
2023-11-05T08:01:29.806Z,98806.34
2023-11-05T08:04:33.494Z,98804.56
2023-11-05T08:07:37.281Z,98809.66
2023-11-05T08:10:41.034Z,98804.34
2023-11-05T08:13:45.618Z,98819.88
2023-11-05T08:16:51.697Z,98802.16
2023-11-05T08:19:55.711Z,98806.59
2023-11-05T08:22:59.435Z,98804.47
2023-11-05T08:26:03.396Z,98797.66
2023-11-05T08:29:07.165Z,98799.94
2023-11-05T08:32:12.303Z,98803.00
2023-11-05T08:35:17.179Z,98798.31
2023-11-05T08:38:21.124Z,98796.78
2023-11-05T08:41:25.065Z,98799.41
2023-11-05T08:44:28.700Z,98799.84
2023-11-05T08:47:33.951Z,98808.91
2023-11-05T08:50:37.935Z,98796.25
2023-11-05T08:53:41.607Z,98795.25
2023-11-05T08:56:45.230Z,98804.13
2023-11-05T08:59:48.927Z,98809.91
2023-11-05T09:02:54.578Z,98808.69
2023-11-05T09:05:58.248Z,98796.25
2023-11-05T09:09:01.868Z,98785.06
2023-11-05T09:12:09.195Z,98792.31
2023-11-05T09:15:13.100Z,98799.25
2023-11-05T09:18:18.520Z,98796.50
2023-11-05T09:21:22.324Z,98801.31
2023-11-05T09:24:28.973Z,98793.03
2023-11-05T09:27:32.698Z,98790.53
2023-11-05T09:30:36.517Z,98784.69
2023-11-05T09:33:41.564Z,98784.69
2023-11-05T09:36:45.925Z,98787.16
2023-11-05T09:39:49.991Z,98781.38
2023-11-05T09:43:00.008Z,98787.75
2023-11-05T09:46:05.678Z,98791.03
2023-11-05T09:49:10.704Z,98782.13
2023-11-05T09:52:14.738Z,98767.25
2023-11-05T09:55:19.106Z,98764.19
2023-11-05T09:58:23.512Z,98770.78
2023-11-05T10:01:29.767Z,98762.19
2023-11-05T10:04:36.263Z,98762.63
2023-11-05T10:07:40.121Z,98767.41
2023-11-05T10:10:46.071Z,98750.69
2023-11-05T10:13:52.393Z,98754.81
2023-11-05T10:16:56.392Z,98750.34
2023-11-05T10:20:01.538Z,98743.41
2023-11-05T10:23:06.086Z,98744.16
2023-11-05T10:26:09.857Z,98738.75
2023-11-05T10:29:15.018Z,98736.94
2023-11-05T10:32:18.633Z,98745.16
2023-11-05T10:35:28.885Z,98738.41
2023-11-05T10:38:34.675Z,98740.78
2023-11-05T10:41:38.454Z,98741.13
2023-11-05T10:44:43.617Z,98737.31
2023-11-05T10:47:47.958Z,98734.56
2023-11-05T10:50:54.862Z,98730.53
2023-11-05T10:53:59.361Z,98732.44
2023-11-05T10:57:03.011Z,98733.47
2023-11-05T11:00:12.248Z,98733.88
2023-11-05T11:03:16.182Z,98740.56
2023-11-05T11:06:21.388Z,98732.88
2023-11-05T11:09:28.335Z,98735.78
2023-11-05T11:12:32.734Z,98745.22
2023-11-05T11:15:38.734Z,98738.53
2023-11-05T11:18:43.583Z,98734.06
2023-11-05T11:21:52.586Z,98736.59
2023-11-05T11:24:56.514Z,98746.56
2023-11-05T11:28:01.782Z,98744.09
2023-11-05T11:31:06.100Z,98739.06
2023-11-05T11:34:09.725Z,98735.06
2023-11-05T11:37:16.969Z,98739.47
2023-11-05T11:40:22.419Z,98748.66
2023-11-05T11:43:27.043Z,98741.91
2023-11-05T11:46:30.685Z,98737.91
2023-11-05T11:49:35.180Z,98739.28
2023-11-05T11:52:49.362Z,98736.63
2023-11-05T11:55:53.728Z,98729.34
2023-11-05T11:58:58.727Z,98745.84
2023-11-05T12:02:04.097Z,98739.44
2023-11-05T12:05:09.086Z,98742.53
2023-11-05T12:08:14.505Z,98736.28
2023-11-05T12:11:19.006Z,98744.69
2023-11-05T12:14:23.635Z,98738.03
2023-11-05T12:17:27.516Z,98737.41
2023-11-05T12:20:32.257Z,98741.72
2023-11-05T12:23:37.574Z,98740.69
2023-11-05T12:26:42.248Z,98739.56
2023-11-05T12:29:46.799Z,98733.69
2023-11-05T12:32:51.918Z,98733.59
2023-11-05T12:35:56.926Z,98738.63
2023-11-05T12:39:02.018Z,98733.06
2023-11-05T12:42:08.007Z,98733.09
2023-11-05T12:45:12.193Z,98735.81
2023-11-05T12:48:16.076Z,98732.19
2023-11-05T12:51:19.734Z,98730.19
2023-11-05T12:54:26.132Z,98721.06
2023-11-05T12:57:30.257Z,98728.34
2023-11-05T13:00:33.958Z,98725.59
2023-11-05T13:03:38.049Z,98727.41
2023-11-05T13:06:43.209Z,98721.97
2023-11-05T13:09:48.403Z,98731.59
2023-11-05T13:12:52.106Z,98726.13
2023-11-05T13:15:55.964Z,98736.50
2023-11-05T13:19:00.263Z,98731.97
2023-11-05T13:22:04.983Z,98726.41
2023-11-05T13:25:11.070Z,98733.72
2023-11-05T13:28:14.904Z,98735.25
2023-11-05T13:31:20.926Z,98739.91
2023-11-05T13:34:25.399Z,98736.34
2023-11-05T13:37:29.170Z,98741.81
2023-11-05T13:40:34.183Z,98737.75
2023-11-05T13:43:37.865Z,98733.53
2023-11-05T13:46:41.721Z,98732.00
2023-11-05T13:49:45.594Z,98731.81
2023-11-05T13:52:49.491Z,98733.63
2023-11-05T13:55:54.691Z,98747.31
2023-11-05T13:58:58.651Z,98736.53
2023-11-05T14:02:02.470Z,98746.94
2023-11-05T14:05:06.652Z,98745.88
2023-11-05T14:08:11.336Z,98742.94
2023-11-05T14:11:16.434Z,98753.31
2023-11-05T14:14:20.160Z,98745.47
2023-11-05T14:17:23.922Z,98750.91
2023-11-05T14:20:27.585Z,98745.47
2023-11-05T14:23:31.249Z,98745.56
2023-11-05T14:26:36.375Z,98741.28
2023-11-05T14:29:40.021Z,98738.66
2023-11-05T14:32:43.918Z,98746.22
2023-11-05T14:35:47.923Z,98741.13
2023-11-05T14:38:51.630Z,98735.72
2023-11-05T14:41:56.682Z,98730.19
2023-11-05T14:45:01.954Z,98739.03
2023-11-05T14:48:07.258Z,98729.97
2023-11-05T14:51:11.536Z,98736.00
2023-11-05T14:54:15.500Z,98739.88
2023-11-05T14:57:20.545Z,98739.69
2023-11-05T15:00:24.507Z,98732.47
2023-11-05T15:03:28.269Z,98739.13
2023-11-05T15:06:32.040Z,98738.22
2023-11-05T15:09:36.272Z,98739.31
2023-11-05T15:12:41.463Z,98740.88
2023-11-05T15:15:46.674Z,98737.22
2023-11-05T15:18:51.109Z,98737.94
2023-11-05T15:21:54.780Z,98743.03
2023-11-05T15:24:59.418Z,98740.66
2023-11-05T15:28:04.563Z,98749.63
2023-11-05T15:31:11.230Z,98743.50
2023-11-05T15:34:15.385Z,98742.44
2023-11-05T15:37:19.352Z,98738.13
2023-11-05T15:40:23.142Z,98737.84
2023-11-05T15:43:28.292Z,98742.13
2023-11-05T15:46:31.928Z,98745.88
2023-11-05T15:49:35.563Z,98744.59
2023-11-05T15:52:39.804Z,98745.50
2023-11-05T15:55:43.988Z,98738.66
2023-11-05T15:58:49.017Z,98743.34
2023-11-05T16:01:53.695Z,98750.25
2023-11-05T16:04:57.598Z,98738.66
2023-11-05T16:08:01.481Z,98741.84
2023-11-05T16:11:06.521Z,98733.47
2023-11-05T16:14:11.612Z,98731.66
2023-11-05T16:17:15.706Z,98743.59
2023-11-05T16:20:19.490Z,98746.50
2023-11-05T16:23:23.233Z,98745.34
2023-11-05T16:26:27.027Z,98743.84
2023-11-05T16:29:32.249Z,98741.13
2023-11-05T16:32:36.727Z,98739.84
2023-11-05T16:35:40.380Z,98737.84
2023-11-05T16:38:43.978Z,98742.47
2023-11-05T16:41:47.655Z,98741.94
2023-11-05T16:44:52.674Z,98748.03
2023-11-05T16:47:56.446Z,98744.50
2023-11-05T16:51:00.896Z,98743.13
2023-11-05T16:54:05.166Z,98739.31
2023-11-05T16:57:09.164Z,98749.50
2023-11-05T17:00:17.507Z,98742.78
2023-11-05T17:03:23.273Z,98750.59
2023-11-05T17:06:28.255Z,98745.84
2023-11-05T17:09:32.292Z,98747.69
2023-11-05T17:12:35.942Z,98744.03
2023-11-05T17:15:41.585Z,98751.16
2023-11-05T17:18:45.431Z,98745.16
2023-11-05T17:21:49.542Z,98749.78
2023-11-05T17:24:53.267Z,98754.06
2023-11-05T17:27:57.086Z,98754.81
2023-11-05T17:31:02.671Z,98753.53
2023-11-05T17:34:07.636Z,98756.38
2023-11-05T17:37:11.684Z,98762.13
2023-11-05T17:40:15.835Z,98748.38
2023-11-05T17:43:19.850Z,98745.16
2023-11-05T17:46:25.103Z,98751.91
2023-11-05T17:49:29.000Z,98742.38
2023-11-05T17:52:37.474Z,98751.69
2023-11-05T17:55:45.048Z,98751.44
2023-11-05T17:58:49.705Z,98754.06
2023-11-05T18:01:56.653Z,98761.44
2023-11-05T18:05:00.700Z,98755.50
2023-11-05T18:08:04.778Z,98757.78
2023-11-05T18:11:08.854Z,98760.25
2023-11-05T18:14:12.665Z,98762.88
2023-11-05T18:17:17.725Z,98760.97
2023-11-05T18:20:21.763Z,98755.31
2023-11-05T18:23:25.754Z,98765.00
2023-11-05T18:26:29.474Z,98762.66
2023-11-05T18:29:33.315Z,98764.63
2023-11-05T18:32:38.437Z,98769.78
2023-11-05T18:35:42.327Z,98770.69
2023-11-05T18:38:46.017Z,98772.75
2023-11-05T18:41:49.747Z,98777.28
2023-11-05T18:44:53.994Z,98773.56
2023-11-05T18:47:59.131Z,98772.44
2023-11-05T18:51:02.918Z,98777.59
2023-11-05T18:54:06.628Z,98774.47
2023-11-05T18:57:13.555Z,98768.97
2023-11-05T19:00:18.068Z,98769.94
2023-11-05T19:03:23.681Z,98766.91
2023-11-05T19:06:27.381Z,98772.09
2023-11-05T19:09:31.135Z,98772.03
2023-11-05T19:12:34.982Z,98775.06
2023-11-05T19:15:38.845Z,98767.72
2023-11-05T19:18:43.938Z,98776.03
2023-11-05T19:21:48.661Z,98772.81
2023-11-05T19:24:52.617Z,98778.59
2023-11-05T19:27:56.370Z,98770.28
2023-11-05T19:31:01.965Z,98773.91
2023-11-05T19:34:07.470Z,98774.47
2023-11-05T19:37:11.278Z,98776.63
2023-11-05T19:40:15.352Z,98770.38
2023-11-05T19:43:18.980Z,98773.00
2023-11-05T19:46:23.310Z,98767.38
2023-11-05T19:49:28.838Z,98770.53
2023-11-05T19:52:32.606Z,98770.44
2023-11-05T19:55:57.290Z,98771.38
2023-11-05T19:59:01.622Z,98781.50
2023-11-05T20:02:14.631Z,98774.66
2023-11-05T20:05:25.091Z,98777.97
2023-11-05T20:08:28.854Z,98776.03
2023-11-05T20:11:32.652Z,98776.13
2023-11-05T20:14:36.829Z,98762.06
2023-11-05T20:17:41.473Z,98759.34
2023-11-05T20:20:46.486Z,98759.34
2023-11-05T20:23:50.134Z,98751.25
2023-11-05T20:26:53.840Z,98755.81
2023-11-05T20:29:57.661Z,98750.44
2023-11-05T20:33:01.450Z,98754.25
2023-11-05T20:36:07.664Z,98749.50
2023-11-05T20:39:11.368Z,98749.63
2023-11-05T20:42:15.762Z,98757.84
2023-11-05T20:45:20.081Z,98750.59
2023-11-05T20:48:23.965Z,98752.97
2023-11-05T20:51:30.166Z,98749.69
2023-11-05T20:54:37.937Z,98750.84
2023-11-05T20:57:42.689Z,98755.81
2023-11-05T21:00:46.392Z,98748.97
2023-11-05T21:03:50.300Z,98750.44
2023-11-05T21:06:55.500Z,98757.44
2023-11-05T21:09:59.145Z,98755.63
2023-11-05T21:13:02.921Z,98754.63
2023-11-05T21:16:07.920Z,98751.50
2023-11-05T21:19:11.637Z,98751.97
2023-11-05T21:22:16.700Z,98748.22
2023-11-05T21:25:20.317Z,98751.97
2023-11-05T21:28:24.144Z,98745.03
2023-11-05T21:31:27.865Z,98740.22
2023-11-05T21:34:31.468Z,98744.22
2023-11-05T21:37:36.529Z,98741.31
2023-11-05T21:40:40.477Z,98746.41
2023-11-05T21:43:44.254Z,98741.78
2023-11-05T21:46:47.941Z,98755.06
2023-11-05T21:49:52.401Z,98750.78
2023-11-05T21:52:57.778Z,98748.97
2023-11-05T21:56:01.640Z,98747.97
2023-11-05T21:59:05.362Z,98746.31
2023-11-05T22:02:09.631Z,98751.88
2023-11-05T22:05:13.862Z,98756.06
2023-11-05T22:08:19.057Z,98760.16
2023-11-05T22:11:22.667Z,98755.50
2023-11-05T22:14:27.997Z,98760.63
2023-11-05T22:17:32.072Z,98758.91
2023-11-05T22:20:37.685Z,98765.00
2023-11-05T22:23:43.597Z,98762.44
2023-11-05T22:26:47.324Z,98763.00
2023-11-05T22:29:51.365Z,98764.63
2023-11-05T22:32:55.114Z,98756.97
2023-11-05T22:35:58.885Z,98762.44
2023-11-05T22:39:04.876Z,98753.63
2023-11-05T22:42:08.597Z,98768.81
2023-11-05T22:45:12.543Z,98765.56
2023-11-05T22:48:16.228Z,98772.41
2023-11-05T22:51:22.192Z,98770.69
2023-11-05T22:54:27.392Z,98772.19
2023-11-05T22:57:31.105Z,98767.91
2023-11-05T23:00:43.966Z,98771.00
2023-11-05T23:03:55.560Z,98773.66
2023-11-05T23:06:59.620Z,98773.56
2023-11-05T23:10:05.522Z,98772.03
2023-11-05T23:13:09.512Z,98770.09
2023-11-05T23:16:13.205Z,98775.78
2023-11-05T23:19:18.363Z,98782.88
2023-11-05T23:22:23.149Z,98780.66
2023-11-05T23:25:35.075Z,98784.63
2023-11-05T23:28:42.249Z,98789.06
2023-11-05T23:31:46.004Z,98786.34
2023-11-05T23:34:50.226Z,98778.34
2023-11-05T23:37:54.290Z,98778.59
2023-11-05T23:40:59.372Z,98775.41
2023-11-05T23:44:03.171Z,98780.41
2023-11-05T23:47:07.538Z,98769.22
2023-11-05T23:50:12.269Z,98770.56
2023-11-05T23:53:15.988Z,98772.19
2023-11-05T23:56:21.041Z,98776.88
2023-11-05T23:59:24.898Z,98770.28
